createdAt,value
2023-01-04T00:00:07.543Z,82.11
2023-01-04T00:07:09.413Z,82.03
2023-01-04T00:14:11.139Z,82.12
2023-01-04T00:21:28.768Z,83.40
2023-01-04T00:28:30.566Z,82.29
2023-01-04T00:35:45.828Z,82.80
2023-01-04T00:42:48.786Z,81.72
2023-01-04T00:49:50.447Z,82.29
2023-01-04T00:56:52.092Z,82.75
2023-01-04T01:03:54.880Z,83.49
2023-01-04T01:11:00.253Z,82.80
2023-01-04T01:18:01.965Z,83.47
2023-01-04T01:25:03.885Z,83.87
2023-01-04T01:32:05.700Z,83.46
2023-01-04T01:39:07.318Z,84.09
2023-01-04T01:46:09.030Z,83.09
2023-01-04T01:53:10.673Z,83.62
2023-01-04T02:00:13.487Z,83.49
2023-01-04T02:07:16.435Z,82.53
2023-01-04T02:14:27.380Z,83.16
2023-01-04T02:21:51.643Z,83.41
2023-01-04T02:29:41.346Z,83.84
2023-01-04T02:36:48.867Z,83.56
2023-01-04T02:44:20.177Z,84.12
2023-01-04T02:51:32.988Z,84.59
2023-01-04T02:58:40.761Z,83.50
2023-01-04T03:06:13.605Z,82.47
2023-01-04T03:13:23.345Z,83.46
2023-01-04T03:20:27.603Z,81.83
2023-01-04T03:27:47.718Z,81.58
2023-01-04T03:35:07.824Z,81.69
2023-01-04T03:42:40.349Z,81.92
2023-01-04T03:49:57.299Z,81.80
2023-01-04T03:56:58.944Z,83.27
2023-01-04T04:04:19.214Z,83.75
2023-01-04T04:11:32.939Z,83.68
2023-01-04T04:18:34.544Z,84.55
2023-01-04T04:25:36.204Z,83.62
2023-01-04T04:32:37.892Z,84.57
2023-01-04T04:39:39.485Z,85.47
2023-01-04T04:46:41.461Z,85.75
2023-01-04T04:53:43.267Z,85.47
2023-01-04T05:00:45.064Z,86.20
2023-01-04T05:07:46.767Z,85.98
2023-01-04T05:14:48.568Z,85.37
2023-01-04T05:21:50.228Z,85.42
2023-01-04T05:28:54.111Z,85.98
2023-01-04T05:35:57.065Z,84.88
2023-01-04T05:42:58.772Z,84.79
2023-01-04T05:50:00.413Z,85.32
2023-01-04T05:57:02.106Z,85.61
2023-01-04T06:04:03.898Z,86.18
2023-01-04T06:11:05.673Z,85.09
2023-01-04T06:18:12.980Z,85.21
2023-01-04T06:25:15.145Z,85.23
2023-01-04T06:32:16.845Z,84.49
2023-01-04T06:39:18.721Z,83.75
2023-01-04T06:46:20.570Z,83.39
2023-01-04T06:53:22.279Z,82.94
2023-01-04T07:00:24.644Z,82.52
2023-01-04T07:07:26.240Z,81.29
2023-01-04T07:14:27.964Z,80.23
2023-01-04T07:21:29.959Z,79.20
2023-01-04T07:28:50.269Z,79.87
2023-01-04T07:35:52.069Z,81.62
2023-01-04T07:42:55.622Z,84.44
2023-01-04T07:49:57.380Z,86.94
2023-01-04T07:56:59.055Z,87.19
2023-01-04T08:04:00.998Z,89.19
2023-01-04T08:11:14.400Z,92.41
2023-01-04T08:18:18.968Z,92.41
2023-01-04T08:25:22.225Z,95.20
2023-01-04T08:32:23.897Z,96.35
2023-01-04T08:39:25.639Z,97.65
2023-01-04T08:46:27.361Z,100.00
2023-01-04T08:53:29.489Z,100.00
2023-01-04T09:00:31.150Z,100.00
2023-01-04T09:07:32.900Z,100.00
2023-01-04T09:14:34.626Z,100.00
2023-01-04T09:21:36.396Z,100.00
2023-01-04T09:28:38.521Z,100.00
2023-01-04T09:35:40.260Z,100.00
2023-01-04T09:42:41.918Z,100.00
2023-01-04T09:49:52.665Z,100.00
2023-01-04T09:56:58.192Z,100.00
2023-01-04T10:04:26.986Z,100.00
2023-01-04T10:11:40.833Z,100.00
2023-01-04T10:20:16.290Z,100.00
2023-01-04T10:26:26.317Z,100.00
2023-01-04T10:33:30.080Z,100.00
2023-01-04T10:40:33.867Z,100.00
2023-01-04T10:47:55.618Z,100.00
2023-01-04T10:55:03.522Z,100.00
2023-01-04T11:02:05.354Z,100.00
2023-01-04T11:09:17.265Z,100.00
2023-01-04T11:16:22.873Z,100.00
2023-01-04T11:23:25.552Z,100.00
2023-01-04T11:30:35.064Z,100.00
2023-01-04T11:37:38.638Z,100.00
2023-01-04T11:44:41.910Z,100.00
2023-01-04T11:51:43.486Z,100.00
2023-01-04T11:59:02.614Z,100.00
2023-01-04T12:06:37.966Z,100.00
2023-01-04T12:13:39.650Z,100.00
2023-01-04T12:20:41.226Z,100.00
2023-01-04T12:27:50.279Z,100.00
2023-01-04T12:34:51.915Z,100.00
2023-01-04T12:42:03.572Z,100.00
2023-01-04T12:49:30.833Z,100.00
2023-01-04T12:57:10.433Z,100.00
2023-01-04T13:04:47.278Z,100.00
2023-01-04T13:12:00.164Z,100.00
2023-01-04T13:19:02.737Z,100.00
2023-01-04T13:26:26.543Z,100.00
2023-01-04T13:33:28.988Z,100.00
2023-01-04T13:40:35.536Z,100.00
2023-01-04T13:47:41.762Z,100.00
2023-01-04T13:54:43.373Z,100.00
2023-01-04T14:01:45.841Z,100.00
2023-01-04T14:08:58.397Z,100.00
2023-01-04T14:16:11.139Z,100.00
2023-01-04T14:23:28.824Z,100.00
2023-01-04T14:30:30.481Z,100.00
2023-01-04T14:37:35.066Z,100.00
2023-01-04T14:44:41.151Z,100.00
2023-01-04T14:51:51.394Z,100.00
2023-01-04T14:58:53.045Z,100.00
2023-01-04T15:05:54.658Z,100.00
2023-01-04T15:12:57.655Z,100.00
2023-01-04T15:19:59.299Z,100.00
2023-01-04T15:27:00.980Z,100.00
2023-01-04T15:34:02.625Z,100.00
2023-01-04T15:41:07.962Z,100.00
2023-01-04T15:48:10.210Z,100.00
2023-01-04T15:55:12.824Z,100.00
2023-01-04T16:02:14.555Z,100.00
2023-01-04T16:09:16.301Z,100.00
2023-01-04T16:16:18.816Z,100.00
2023-01-04T16:23:20.444Z,100.00
2023-01-04T16:30:29.387Z,100.00
2023-01-04T16:37:31.605Z,100.00
2023-01-04T16:44:33.357Z,100.00
2023-01-04T16:51:35.623Z,100.00
2023-01-04T16:58:37.436Z,100.00
2023-01-04T17:05:42.040Z,100.00
2023-01-04T17:12:48.487Z,100.00
2023-01-04T17:19:50.515Z,100.00
2023-01-04T17:26:52.233Z,100.00
2023-01-04T17:33:54.012Z,100.00
2023-01-04T17:40:55.741Z,100.00
2023-01-04T17:47:57.651Z,100.00
2023-01-04T17:54:59.390Z,100.00
2023-01-04T18:02:01.073Z,100.00
2023-01-04T18:09:04.360Z,100.00
2023-01-04T18:16:24.038Z,100.00
2023-01-04T18:23:26.334Z,99.94
2023-01-04T18:30:27.983Z,100.00
2023-01-04T18:37:29.704Z,100.00
2023-01-04T18:44:33.421Z,100.00
2023-01-04T18:51:36.403Z,99.91
2023-01-04T18:58:38.198Z,98.26
2023-01-04T19:05:40.954Z,98.94
2023-01-04T19:12:43.174Z,98.94
2023-01-04T19:19:45.928Z,100.00
2023-01-04T19:26:47.550Z,97.80
2023-01-04T19:33:49.168Z,96.57
2023-01-04T19:40:57.304Z,98.01
2023-01-04T19:47:59.412Z,95.69
2023-01-04T19:55:01.168Z,100.00
2023-01-04T20:02:03.028Z,100.00
2023-01-04T20:09:04.925Z,100.00
2023-01-04T20:16:07.642Z,100.00
2023-01-04T20:23:09.804Z,100.00
2023-01-04T20:30:11.680Z,100.00
2023-01-04T20:37:13.279Z,100.00
2023-01-04T20:44:14.934Z,100.00
2023-01-04T20:51:19.049Z,100.00
2023-01-04T20:58:20.844Z,100.00
2023-01-04T21:05:22.590Z,99.59
2023-01-04T21:12:24.253Z,98.99
2023-01-04T21:19:25.803Z,98.54
2023-01-04T21:26:27.561Z,97.30
2023-01-04T21:33:29.725Z,98.68
2023-01-04T21:40:32.181Z,99.27
2023-01-04T21:47:34.007Z,99.83
2023-01-04T21:54:35.592Z,98.85
2023-01-04T22:01:37.784Z,100.00
2023-01-04T22:08:40.224Z,100.00
2023-01-04T22:15:41.823Z,100.00
2023-01-04T22:22:43.451Z,100.00
2023-01-04T22:29:45.113Z,100.00
2023-01-04T22:36:46.910Z,100.00
2023-01-04T22:43:48.690Z,100.00
2023-01-04T22:50:50.345Z,100.00
2023-01-04T22:57:51.964Z,100.00
2023-01-04T23:04:53.561Z,100.00
2023-01-04T23:11:56.291Z,100.00
2023-01-04T23:18:57.952Z,100.00
2023-01-04T23:26:24.543Z,100.00
2023-01-04T23:33:29.645Z,100.00
2023-01-04T23:40:34.499Z,100.00
2023-01-04T23:47:36.097Z,100.00
2023-01-04T23:54:37.729Z,100.00
